Terminal Aerodrome Forecast
Issued by NWS Jackson, MS

Home | Current Version | Previous Version | Text Only | Print | Product List | Glossary On
Versions: 1 2 3 4 5 6 7 8 9 10 11 12 13
293
FTUS44 KJAN 272320
TAFMEI
TAF
KMEI 272320Z 2800/2824 22011KT 6SM -TSRA BR BKN040CB
     FM280100 20007KT P6SM -SHRA BKN060
     FM280200 18007KT P6SM BKN100
     FM280800 20007KT P6SM OVC015
     FM280900 20003KT 4SM BR OVC007
     FM281500 22004KT P6SM OVC015
     FM281700 21006KT P6SM SCT050=

USA.gov is the U.S. government's official web portal to all federal, state and local government web resources and services.